createdAt,value
2022-09-20T00:04:06.835Z,100.00
2022-09-20T00:09:08.608Z,100.00
2022-09-20T00:14:10.248Z,100.00
2022-09-20T00:19:18.683Z,100.00
2022-09-20T00:24:20.445Z,100.00
2022-09-20T00:29:22.386Z,100.00
2022-09-20T00:34:42.771Z,100.00
2022-09-20T00:39:44.504Z,100.00
2022-09-20T00:45:00.512Z,100.00
2022-09-20T00:50:08.184Z,100.00
2022-09-20T00:55:10.245Z,100.00
2022-09-20T01:00:12.895Z,100.00
2022-09-20T01:05:15.728Z,100.00
2022-09-20T01:10:17.732Z,100.00
2022-09-20T01:15:23.239Z,100.00
2022-09-20T01:20:33.753Z,100.00
2022-09-20T01:26:05.607Z,100.00
2022-09-20T01:31:29.187Z,100.00
2022-09-20T01:36:36.210Z,100.00
2022-09-20T01:41:44.043Z,100.00
2022-09-20T01:46:49.171Z,100.00
2022-09-20T01:52:27.602Z,100.00
2022-09-20T01:57:35.401Z,100.00
2022-09-20T02:03:14.675Z,100.00
2022-09-20T02:08:44.440Z,100.00
2022-09-20T02:14:14.978Z,100.00
2022-09-20T02:19:50.917Z,100.00
2022-09-20T02:25:03.839Z,100.00
2022-09-20T02:30:34.642Z,100.00
2022-09-20T02:35:53.302Z,100.00
2022-09-20T02:41:00.680Z,100.00
2022-09-20T02:46:21.021Z,100.00
2022-09-20T02:51:41.172Z,100.00
2022-09-20T02:56:55.520Z,100.00
2022-09-20T03:02:11.027Z,100.00
2022-09-20T03:07:18.532Z,100.00
2022-09-20T03:12:49.358Z,100.00
2022-09-20T03:18:06.419Z,100.00
2022-09-20T03:23:40.603Z,100.00
2022-09-20T03:28:50.277Z,100.00
2022-09-20T03:34:38.107Z,100.00
2022-09-20T03:40:18.593Z,100.00
2022-09-20T03:45:39.029Z,100.00
2022-09-20T03:51:08.637Z,100.00
2022-09-20T03:56:16.090Z,100.00
2022-09-20T04:01:42.201Z,100.00
2022-09-20T04:07:13.099Z,100.00
2022-09-20T04:12:42.355Z,100.00
2022-09-20T04:18:04.208Z,100.00
2022-09-20T04:23:21.626Z,100.00
2022-09-20T04:28:40.401Z,100.00
2022-09-20T04:33:48.499Z,100.00
2022-09-20T04:39:18.000Z,100.00
2022-09-20T04:44:27.736Z,100.00
2022-09-20T04:49:33.669Z,100.00
2022-09-20T04:54:53.360Z,100.00
2022-09-20T05:00:18.749Z,100.00
2022-09-20T05:05:39.256Z,100.00
2022-09-20T05:11:02.730Z,100.00
2022-09-20T05:16:08.309Z,100.00
2022-09-20T05:21:46.420Z,100.00
2022-09-20T05:26:50.932Z,100.00
2022-09-20T05:31:55.594Z,100.00
2022-09-20T05:37:09.432Z,100.00
2022-09-20T05:42:24.764Z,100.00
2022-09-20T05:47:45.137Z,100.00
2022-09-20T05:52:59.238Z,100.00
2022-09-20T05:58:44.815Z,100.00
2022-09-20T06:03:55.847Z,100.00
2022-09-20T06:09:00.499Z,100.00
2022-09-20T06:14:43.358Z,100.00
2022-09-20T06:20:27.173Z,100.00
2022-09-20T06:25:45.037Z,100.00
2022-09-20T06:30:55.213Z,100.00
2022-09-20T06:36:19.859Z,100.00
2022-09-20T06:41:28.332Z,100.00
2022-09-20T06:46:36.074Z,100.00
2022-09-20T06:51:39.359Z,100.00
2022-09-20T06:56:41.013Z,100.00
2022-09-20T07:01:43.059Z,100.00
2022-09-20T07:06:44.751Z,100.00
2022-09-20T07:11:46.527Z,100.00
2022-09-20T07:16:48.077Z,100.00
2022-09-20T07:21:49.804Z,100.00
2022-09-20T07:27:03.498Z,100.00
2022-09-20T07:32:05.257Z,100.00
2022-09-20T07:37:07.035Z,100.00
2022-09-20T07:42:08.954Z,100.00
2022-09-20T07:47:11.174Z,100.00
2022-09-20T07:52:14.713Z,100.00
2022-09-20T07:57:17.140Z,100.00
2022-09-20T08:02:18.802Z,100.00
2022-09-20T08:07:20.437Z,100.00
2022-09-20T08:17:47.428Z,100.00
2022-09-20T08:23:06.318Z,100.00
2022-09-20T08:28:10.604Z,100.00
2022-09-20T08:33:12.990Z,100.00
2022-09-20T08:43:45.651Z,100.00
2022-09-20T08:48:47.341Z,100.00
2022-09-20T08:53:53.055Z,100.00
2022-09-20T08:58:56.268Z,100.00
2022-09-20T09:04:14.819Z,97.28
2022-09-20T09:09:25.575Z,94.63
2022-09-20T09:14:49.003Z,94.45
2022-09-20T09:19:50.966Z,93.69
2022-09-20T09:25:09.451Z,82.10
2022-09-20T09:30:27.622Z,80.04
2022-09-20T09:35:31.517Z,79.02
2022-09-20T09:40:33.290Z,76.92
2022-09-20T09:45:40.804Z,76.26
2022-09-20T09:50:42.535Z,75.87
2022-09-20T09:56:04.543Z,77.16
2022-09-20T10:01:14.575Z,69.39
2022-09-20T10:06:37.789Z,50.73
2022-09-20T10:12:06.891Z,40.13
2022-09-20T10:17:34.993Z,34.42
2022-09-20T10:23:39.510Z,31.83
2022-09-20T10:29:03.597Z,30.09
2022-09-20T10:34:35.869Z,29.84
2022-09-20T10:39:41.041Z,27.50
2022-09-20T10:45:01.916Z,27.28
2022-09-20T10:50:29.484Z,25.93
2022-09-20T10:55:37.154Z,27.05
2022-09-20T11:01:01.494Z,27.17
2022-09-20T11:06:39.930Z,28.40
2022-09-20T11:11:51.957Z,25.68
2022-09-20T11:17:00.248Z,25.00
2022-09-20T11:22:25.635Z,26.06
2022-09-20T11:27:32.858Z,25.48
2022-09-20T11:32:44.634Z,24.79
2022-09-20T11:38:18.673Z,25.90
2022-09-20T11:43:21.720Z,25.84
2022-09-20T11:48:29.595Z,25.41
2022-09-20T11:53:56.480Z,24.75
2022-09-20T11:59:01.337Z,26.03
2022-09-20T12:04:38.621Z,26.74
2022-09-20T12:09:43.967Z,26.15
2022-09-20T12:14:55.164Z,25.22
2022-09-20T12:19:56.879Z,27.02
2022-09-20T12:25:36.714Z,27.98
2022-09-20T12:30:38.338Z,33.90
2022-09-20T12:35:40.109Z,35.61
2022-09-20T12:41:15.513Z,31.87
2022-09-20T12:46:34.732Z,33.32
2022-09-20T12:51:54.913Z,32.39
2022-09-20T12:56:56.934Z,33.28
2022-09-20T13:02:37.353Z,32.27
2022-09-20T13:07:43.787Z,35.82
2022-09-20T13:12:49.500Z,34.93
2022-09-20T13:17:59.113Z,34.21
2022-09-20T13:23:03.449Z,34.15
2022-09-20T13:28:21.168Z,33.86
2022-09-20T13:33:25.085Z,33.55
2022-09-20T13:38:30.046Z,34.89
2022-09-20T13:43:31.568Z,34.47
2022-09-20T13:48:33.246Z,35.26
2022-09-20T13:53:42.869Z,34.59
2022-09-20T13:58:44.735Z,37.59
2022-09-20T14:03:47.285Z,38.18
2022-09-20T14:08:51.260Z,34.50
2022-09-20T14:13:55.521Z,35.21
2022-09-20T14:18:58.800Z,32.42
2022-09-20T14:24:06.506Z,36.28
2022-09-20T14:29:30.681Z,39.08
2022-09-20T14:34:36.530Z,39.00
2022-09-20T14:39:47.925Z,37.46
2022-09-20T14:44:53.003Z,37.69
2022-09-20T14:49:55.559Z,37.77
2022-09-20T14:55:20.479Z,37.80
2022-09-20T15:00:22.325Z,38.92
2022-09-20T15:05:26.556Z,38.75
2022-09-20T15:10:29.600Z,39.72
2022-09-20T15:15:32.351Z,39.56
2022-09-20T15:20:34.256Z,40.93
2022-09-20T15:25:35.985Z,37.02
2022-09-20T15:30:37.492Z,38.26
2022-09-20T15:35:41.742Z,40.23
2022-09-20T15:40:46.058Z,41.13
2022-09-20T15:45:52.368Z,41.95
2022-09-20T15:51:04.464Z,42.80
2022-09-20T15:56:21.938Z,45.54
2022-09-20T16:01:24.112Z,44.18
2022-09-20T16:06:26.333Z,45.72
2022-09-20T16:11:28.184Z,49.23
2022-09-20T16:16:36.124Z,53.66
2022-09-20T16:21:42.689Z,52.78
2022-09-20T16:26:47.559Z,53.73
2022-09-20T16:31:50.205Z,55.33
2022-09-20T16:36:54.622Z,52.19
2022-09-20T16:42:05.027Z,56.19
2022-09-20T16:47:10.490Z,56.61
2022-09-20T16:52:12.220Z,60.32
2022-09-20T16:57:14.475Z,59.05
2022-09-20T17:02:16.150Z,56.00
2022-09-20T17:07:17.820Z,61.76
2022-09-20T17:12:22.362Z,64.32
2022-09-20T17:17:24.004Z,67.42
2022-09-20T17:22:25.578Z,69.66
2022-09-20T17:27:27.143Z,72.70
2022-09-20T17:32:29.350Z,73.04
2022-09-20T17:37:32.099Z,75.25
2022-09-20T17:42:34.611Z,77.73
2022-09-20T17:47:36.148Z,79.38
2022-09-20T17:52:37.692Z,80.96
2022-09-20T17:57:39.229Z,81.87
2022-09-20T18:02:40.883Z,83.80
2022-09-20T18:07:42.575Z,84.35
2022-09-20T18:12:44.242Z,85.00
2022-09-20T18:17:45.772Z,86.56
2022-09-20T18:22:50.369Z,86.86
2022-09-20T18:27:52.379Z,88.06
2022-09-20T18:32:54.005Z,89.61
2022-09-20T18:37:55.600Z,90.54
2022-09-20T18:43:04.561Z,91.51
2022-09-20T18:48:08.757Z,92.56
2022-09-20T18:53:10.540Z,93.57
2022-09-20T18:58:12.262Z,95.02
2022-09-20T19:03:23.344Z,96.02
2022-09-20T19:08:51.353Z,97.60
2022-09-20T19:14:22.114Z,98.54
2022-09-20T19:20:06.159Z,98.80
2022-09-20T19:25:37.866Z,100.00
2022-09-20T19:30:40.472Z,100.00
2022-09-20T19:35:49.363Z,100.00
2022-09-20T19:41:06.602Z,100.00
2022-09-20T19:46:36.760Z,100.00
2022-09-20T19:51:40.304Z,100.00
2022-09-20T19:56:59.366Z,100.00
2022-09-20T20:02:01.816Z,100.00
2022-09-20T20:07:27.959Z,100.00
2022-09-20T20:13:04.221Z,100.00
2022-09-20T20:18:25.199Z,100.00
2022-09-20T20:23:27.879Z,100.00
2022-09-20T20:28:30.353Z,100.00
2022-09-20T20:33:32.891Z,100.00
2022-09-20T20:38:39.372Z,100.00
2022-09-20T20:43:42.946Z,100.00
2022-09-20T20:48:46.081Z,100.00
2022-09-20T20:53:50.308Z,100.00
2022-09-20T20:58:52.929Z,100.00
2022-09-20T21:03:56.157Z,100.00
2022-09-20T21:08:58.506Z,100.00
2022-09-20T21:14:01.709Z,100.00
2022-09-20T21:19:05.302Z,100.00
2022-09-20T21:24:09.525Z,100.00
2022-09-20T21:29:12.272Z,100.00
2022-09-20T21:34:15.534Z,100.00
2022-09-20T21:39:17.199Z,100.00
2022-09-20T21:44:20.485Z,100.00
2022-09-20T21:49:22.098Z,100.00
2022-09-20T21:54:24.192Z,100.00
2022-09-20T21:59:26.881Z,100.00
2022-09-20T22:04:28.923Z,100.00
2022-09-20T22:09:30.949Z,100.00
2022-09-20T22:14:32.547Z,100.00
2022-09-20T22:19:34.848Z,100.00
2022-09-20T22:24:36.487Z,100.00
2022-09-20T22:29:38.007Z,100.00
2022-09-20T22:34:39.544Z,100.00
2022-09-20T22:39:41.503Z,100.00
2022-09-20T22:44:43.041Z,100.00
2022-09-20T22:49:44.752Z,100.00
2022-09-20T22:54:46.794Z,100.00
2022-09-20T22:59:48.315Z,100.00
2022-09-20T23:04:49.907Z,100.00
2022-09-20T23:09:51.538Z,100.00
2022-09-20T23:14:53.084Z,100.00
2022-09-20T23:19:54.658Z,100.00
2022-09-20T23:24:56.258Z,100.00
2022-09-20T23:29:57.768Z,100.00
2022-09-20T23:34:59.340Z,100.00
2022-09-20T23:40:01.014Z,100.00
2022-09-20T23:45:02.711Z,100.00
2022-09-20T23:50:04.556Z,100.00
2022-09-20T23:55:06.412Z,100.00
